Time;durP1;ratioP1;P1;durP2;ratioP2;P2;SDS_P1;SDS_P2;PMS_P1;PMS_P2;Temp;Humidity;BMP_temperature;BMP_pressure;BME280_temperature;BME280_humidity;BME280_pressure;Samples;Min_cycle;Max_cycle;Signal;HPM_P1;HPM_P2
2022/06/30 00:01:32;;;;;;;3.60;1.60;;;26.50;51.60;;;;;;4897112;29;20043;-48
2022/06/30 00:03:57;;;;;;;5.47;1.63;;;26.50;51.60;;;;;;4915382;29;20021;-49
2022/06/30 00:06:23;;;;;;;3.15;1.63;;;26.50;51.70;;;;;;4913757;29;20030;-48
2022/06/30 00:08:50;;;;;;;3.17;1.17;;;26.50;51.60;;;;;;4914973;29;20020;-49
2022/06/30 00:11:15;;;;;;;2.88;1.40;;;26.50;51.60;;;;;;4915720;29;20032;-49
2022/06/30 00:13:42;;;;;;;3.40;1.45;;;26.50;51.60;;;;;;4914621;29;20020;-48
2022/06/30 00:16:08;;;;;;;2.70;1.40;;;26.50;51.70;;;;;;4915142;29;20098;-48
2022/06/30 00:18:35;;;;;;;2.35;1.48;;;26.50;51.60;;;;;;4913830;29;20032;-49
2022/06/30 00:21:01;;;;;;;2.75;1.55;;;26.50;51.40;;;;;;4913666;29;20034;-48
2022/06/30 00:23:26;;;;;;;3.67;1.75;;;26.50;51.70;;;;;;4916668;29;20042;-49
2022/06/30 00:25:52;;;;;;;3.70;1.65;;;26.50;51.60;;;;;;4914406;29;20536;-49
2022/06/30 00:28:19;;;;;;;3.50;1.48;;;26.50;51.60;;;;;;4913507;29;20077;-49
2022/06/30 00:30:49;;;;;;;2.75;1.67;;;26.50;52.50;;;;;;4914932;29;20428;-50
2022/06/30 00:33:16;;;;;;;2.50;1.35;;;26.40;51.70;;;;;;4915152;29;20060;-50
2022/06/30 00:35:42;;;;;;;2.67;1.50;;;26.50;51.60;;;;;;4915105;29;20036;-51
2022/06/30 00:38:08;;;;;;;1.88;1.17;;;26.50;51.60;;;;;;4913583;29;20639;-49
2022/06/30 00:40:38;;;;;;;3.65;1.75;;;26.50;51.80;;;;;;4913274;29;20064;-49
2022/06/30 00:43:04;;;;;;;2.58;1.40;;;26.50;51.60;;;;;;4915088;29;20036;-49
2022/06/30 00:45:30;;;;;;;3.17;1.83;;;26.50;51.60;;;;;;4914574;29;20565;-49
2022/06/30 00:47:56;;;;;;;2.83;1.50;;;26.50;51.70;;;;;;4913170;29;20036;-50
2022/06/30 00:50:22;;;;;;;5.32;1.83;;;26.40;51.60;;;;;;4914441;29;20016;-49
2022/06/30 00:52:51;;;;;;;3.42;1.90;;;26.50;51.70;;;;;;4914242;29;20028;-49
2022/06/30 00:55:18;;;;;;;3.60;1.70;;;26.50;51.70;;;;;;4914310;29;20067;-48
2022/06/30 00:57:45;;;;;;;3.97;1.83;;;26.40;51.70;;;;;;4914489;29;20575;-48
2022/06/30 01:00:15;;;;;;;3.00;1.80;;;26.40;51.60;;;;;;4913821;29;20078;-49
2022/06/30 01:02:40;;;;;;;3.15;1.88;;;26.40;51.60;;;;;;4928662;29;20125;-48
2022/06/30 01:05:07;;;;;;;4.18;2.22;;;26.40;51.70;;;;;;4914526;29;20024;-48
2022/06/30 01:07:34;;;;;;;3.75;2.00;;;26.40;51.70;;;;;;4914599;29;20034;-48
2022/06/30 01:12:47;;;;;;;3.42;2.15;;;26.40;51.90;;;;;;4914948;29;20703;-48
2022/06/30 01:15:20;;;;;;;3.72;2.15;;;26.40;51.80;;;;;;4915903;29;20099;-48
2022/06/30 01:17:48;;;;;;;3.38;2.03;;;26.40;51.70;;;;;;4913517;29;20020;-48
2022/06/30 01:20:16;;;;;;;3.22;1.90;;;26.40;51.80;;;;;;4914269;29;20091;-47
2022/06/30 01:22:42;;;;;;;3.92;1.90;;;26.40;51.90;;;;;;4914840;29;20418;-49
2022/06/30 01:25:10;;;;;;;3.67;2.00;;;26.40;51.80;;;;;;4914663;29;20039;-49
2022/06/30 01:27:36;;;;;;;3.97;2.17;;;26.40;51.90;;;;;;4913203;29;20075;-49
2022/06/30 01:30:02;;;;;;;3.63;2.17;;;26.40;52.00;;;;;;4914131;29;20050;-49
2022/06/30 01:32:29;;;;;;;3.63;1.95;;;26.40;51.90;;;;;;4916725;29;20131;-47
2022/06/30 01:34:58;;;;;;;3.63;2.03;;;26.40;51.80;;;;;;4915249;29;20124;-47
2022/06/30 01:37:25;;;;;;;3.25;2.17;;;26.40;52.00;;;;;;4914420;29;20032;-48
2022/06/30 01:39:51;;;;;;;3.45;2.00;;;26.30;51.80;;;;;;4914900;29;20036;-49
2022/06/30 01:42:17;;;;;;;3.30;1.90;;;26.40;52.00;;;;;;4913143;29;20039;-49
2022/06/30 01:44:43;;;;;;;4.03;2.17;;;26.30;51.90;;;;;;4915290;29;20034;-48
2022/06/30 01:47:10;;;;;;;4.30;2.40;;;26.30;52.00;;;;;;4913488;29;20028;-49
2022/06/30 01:49:36;;;;;;;4.25;2.20;;;26.30;52.00;;;;;;4912817;29;20054;-49
2022/06/30 01:52:03;;;;;;;4.97;2.40;;;26.30;52.00;;;;;;4913440;29;20024;-48
2022/06/30 01:54:29;;;;;;;4.75;2.08;;;26.30;52.00;;;;;;4914179;29;20111;-49
2022/06/30 01:56:55;;;;;;;5.05;2.60;;;26.30;52.00;;;;;;4914329;29;20031;-49
2022/06/30 01:59:21;;;;;;;4.70;2.30;;;26.30;52.10;;;;;;4917391;29;20043;-48
2022/06/30 02:01:47;;;;;;;3.47;2.10;;;26.30;52.20;;;;;;4917124;29;20748;-49
2022/06/30 02:06:57;;;;;;;3.78;2.40;;;26.30;52.20;;;;;;4916768;29;20075;-48
2022/06/30 02:09:23;;;;;;;3.85;1.90;;;26.30;52.10;;;;;;4917622;29;20431;-47
2022/06/30 02:12:44;;;;;;;3.83;2.15;;;26.30;52.00;;;;;;4917560;29;20043;-48
2022/06/30 02:14:34;;;;;;;3.45;1.92;;;26.30;52.00;;;;;;4917803;29;20067;-48
2022/06/30 02:17:00;;;;;;;3.58;2.20;;;26.30;52.00;;;;;;4917322;29;20055;-48
2022/06/30 02:19:26;;;;;;;3.92;2.15;;;26.30;52.10;;;;;;4917780;29;20036;-48
2022/06/30 02:21:51;;;;;;;4.00;2.20;;;26.30;52.10;;;;;;4916764;29;20028;-49
2022/06/30 02:24:17;;;;;;;4.53;2.50;;;26.30;52.00;;;;;;4916682;29;20024;-49
2022/06/30 02:26:43;;;;;;;3.33;1.98;;;26.30;52.00;;;;;;4916930;29;20028;-48
2022/06/30 02:29:08;;;;;;;4.57;2.45;;;26.30;52.30;;;;;;4917668;29;20448;-48
2022/06/30 02:31:34;;;;;;;4.72;2.20;;;26.20;52.10;;;;;;4914942;29;20709;-49
2022/06/30 02:34:00;;;;;;;3.50;2.33;;;26.30;52.10;;;;;;4917459;29;20027;-49
2022/06/30 02:36:26;;;;;;;3.28;1.90;;;26.20;52.10;;;;;;4917311;29;20055;-49
2022/06/30 02:38:51;;;;;;;4.53;2.50;;;26.20;52.10;;;;;;4916347;29;20019;-49
2022/06/30 02:41:17;;;;;;;3.50;2.03;;;26.20;52.20;;;;;;4918006;29;20081;-49
2022/06/30 02:43:43;;;;;;;3.55;2.40;;;26.20;52.30;;;;;;4916534;29;20689;-49
2022/06/30 02:46:08;;;;;;;3.70;2.13;;;26.20;52.20;;;;;;4917045;29;20043;-49
2022/06/30 02:48:34;;;;;;;3.83;2.30;;;26.20;52.20;;;;;;4914731;29;20036;-49
2022/06/30 02:51:00;;;;;;;4.85;2.42;;;26.20;52.10;;;;;;4917672;29;20781;-48
2022/06/30 02:53:25;;;;;;;3.90;2.15;;;26.20;52.10;;;;;;4914872;29;20075;-48
2022/06/30 02:55:51;;;;;;;4.10;2.55;;;26.20;52.10;;;;;;4918788;29;20424;-48
2022/06/30 02:58:17;;;;;;;3.53;2.10;;;26.20;52.30;;;;;;4916384;29;20031;-48
2022/06/30 03:00:43;;;;;;;4.88;2.55;;;26.20;52.20;;;;;;4916792;29;20035;-49
2022/06/30 03:03:09;;;;;;;4.18;2.38;;;26.20;52.20;;;;;;4916480;29;20031;-48
2022/06/30 03:05:35;;;;;;;3.63;2.17;;;26.20;52.30;;;;;;4916196;29;20020;-48
2022/06/30 03:08:01;;;;;;;5.43;2.58;;;26.20;52.30;;;;;;4915530;29;20061;-49
2022/06/30 03:10:27;;;;;;;4.05;2.30;;;26.20;52.40;;;;;;4915288;29;20031;-49
2022/06/30 03:12:52;;;;;;;4.82;2.13;;;26.20;52.60;;;;;;4915797;29;20020;-48
2022/06/30 03:15:18;;;;;;;3.38;1.90;;;26.20;52.50;;;;;;4916172;29;20040;-49
2022/06/30 03:17:44;;;;;;;4.05;2.40;;;26.20;52.40;;;;;;4915677;29;20023;-49
2022/06/30 03:20:10;;;;;;;3.05;2.00;;;26.10;52.50;;;;;;4915573;29;20091;-49
2022/06/30 03:22:36;;;;;;;5.30;2.58;;;26.20;52.50;;;;;;4915664;29;20048;-49
2022/06/30 03:25:02;;;;;;;4.10;2.30;;;26.10;52.50;;;;;;4916523;29;20024;-49
2022/06/30 03:27:28;;;;;;;4.35;2.65;;;26.10;52.60;;;;;;4915893;29;20036;-49
2022/06/30 03:29:53;;;;;;;3.42;2.15;;;26.10;53.20;;;;;;4915108;29;20042;-47
2022/06/30 03:32:19;;;;;;;3.60;2.00;;;26.10;52.50;;;;;;4917910;29;20043;-48
2022/06/30 03:34:45;;;;;;;4.05;2.03;;;26.10;52.50;;;;;;4917454;29;20028;-48
2022/06/30 03:37:10;;;;;;;4.05;2.30;;;26.10;52.60;;;;;;4915774;29;20043;-47
2022/06/30 03:39:36;;;;;;;4.32;2.20;;;26.10;52.60;;;;;;4916767;29;20046;-49
2022/06/30 03:42:02;;;;;;;3.65;2.15;;;26.10;52.50;;;;;;4917072;29;20035;-49
2022/06/30 03:44:28;;;;;;;3.30;2.00;;;26.10;52.60;;;;;;4916763;29;20087;-49
2022/06/30 03:46:54;;;;;;;3.72;2.20;;;26.10;52.60;;;;;;4916231;29;20029;-49
2022/06/30 03:49:20;;;;;;;4.03;2.47;;;26.10;52.60;;;;;;4916721;29;20079;-48
2022/06/30 03:51:46;;;;;;;3.42;2.17;;;26.10;52.70;;;;;;4916748;29;20400;-48
2022/06/30 03:54:12;;;;;;;3.75;2.53;;;26.10;52.80;;;;;;4916416;29;20035;-48
2022/06/30 03:56:37;;;;;;;4.22;2.40;;;26.10;52.80;;;;;;4923237;29;20024;-49
2022/06/30 03:59:03;;;;;;;4.15;2.60;;;26.10;52.80;;;;;;4916971;29;20176;-49
2022/06/30 04:01:29;;;;;;;4.70;2.60;;;26.10;52.90;;;;;;4917626;29;20035;-51
2022/06/30 04:03:54;;;;;;;4.20;2.40;;;26.10;53.00;;;;;;4916193;29;20054;-49
2022/06/30 04:06:20;;;;;;;4.03;2.58;;;26.10;52.90;;;;;;4916140;29;20043;-48
2022/06/30 04:08:46;;;;;;;4.20;2.58;;;26.10;52.90;;;;;;4914770;29;20456;-47
2022/06/30 04:11:12;;;;;;;4.25;2.55;;;26.00;52.90;;;;;;4916405;29;20036;-49
2022/06/30 04:13:37;;;;;;;4.05;2.60;;;26.00;52.80;;;;;;4916126;29;20118;-48
2022/06/30 04:16:03;;;;;;;4.72;2.85;;;26.00;52.80;;;;;;4918475;29;20103;-48
2022/06/30 04:18:29;;;;;;;5.40;2.65;;;26.00;52.70;;;;;;4915838;29;20047;-48
2022/06/30 04:20:54;;;;;;;4.38;2.55;;;26.00;52.80;;;;;;4914771;29;20074;-48
2022/06/30 04:23:20;;;;;;;3.53;2.22;;;26.00;52.90;;;;;;4916017;29;20042;-48
2022/06/30 04:25:46;;;;;;;3.83;2.15;;;26.00;52.90;;;;;;4916157;29;20046;-49
2022/06/30 04:28:12;;;;;;;4.07;2.47;;;26.00;52.90;;;;;;4899756;29;20036;-49
2022/06/30 04:33:22;;;;;;;3.53;2.35;;;26.00;53.30;;;;;;4918628;29;20042;-47
2022/06/30 04:35:48;;;;;;;7.93;3.75;;;26.00;53.10;;;;;;4917231;29;20535;-47
2022/06/30 04:38:13;;;;;;;5.47;3.15;;;26.00;55.90;;;;;;4916794;29;20028;-48
2022/06/30 04:43:24;;;;;;;4.22;2.40;;;25.90;55.40;;;;;;4915419;29;20098;-48
2022/06/30 04:45:49;;;;;;;4.80;2.50;;;25.90;55.70;;;;;;4915858;29;20112;-47
2022/06/30 04:48:15;;;;;;;4.85;2.83;;;25.90;55.70;;;;;;4914548;29;20034;-48
2022/06/30 04:50:41;;;;;;;4.82;3.08;;;25.90;55.70;;;;;;4915206;29;20027;-48
2022/06/30 04:53:08;;;;;;;5.47;3.35;;;25.90;56.40;;;;;;4915123;29;20706;-47
2022/06/30 04:55:35;;;;;;;5.43;3.30;;;25.80;56.30;;;;;;4915574;29;20027;-49
2022/06/30 04:58:00;;;;;;;4.85;2.95;;;25.80;56.70;;;;;;4915102;29;20028;-48
2022/06/30 05:00:26;;;;;;;20.42;6.10;;;25.80;56.90;;;;;;4915465;29;20040;-48
2022/06/30 05:02:52;;;;;;;13.27;5.22;;;25.80;57.30;;;;;;4914654;29;20059;-48
2022/06/30 05:05:18;;;;;;;16.50;6.55;;;25.70;57.00;;;;;;4914688;29;20027;-48
2022/06/30 05:07:44;;;;;;;14.70;5.75;;;25.70;57.30;;;;;;4914140;29;20773;-48
2022/06/30 05:10:09;;;;;;;13.10;5.30;;;25.70;57.80;;;;;;4914409;29;20039;-48
2022/06/30 05:12:35;;;;;;;10.07;4.70;;;25.70;57.90;;;;;;4915245;29;20491;-48
2022/06/30 05:15:01;;;;;;;10.70;4.60;;;25.70;58.10;;;;;;4915822;29;20032;-47
2022/06/30 05:17:27;;;;;;;9.48;4.20;;;25.80;58.00;;;;;;4913693;29;20051;-48
2022/06/30 05:19:52;;;;;;;7.85;4.05;;;25.80;58.00;;;;;;4915020;29;20714;-48
2022/06/30 05:22:18;;;;;;;7.30;3.55;;;25.80;57.90;;;;;;4913737;29;20599;-49
2022/06/30 05:27:28;;;;;;;5.07;3.10;;;25.80;57.80;;;;;;4914170;29;20751;-48
2022/06/30 05:29:55;;;;;;;4.82;2.60;;;25.80;57.90;;;;;;4915145;29;20064;-48
2022/06/30 05:32:21;;;;;;;4.60;3.20;;;25.80;57.60;;;;;;4914822;29;20036;-48
2022/06/30 05:34:46;;;;;;;4.10;2.90;;;25.80;57.80;;;;;;4918648;29;20498;-48
2022/06/30 05:37:13;;;;;;;4.18;2.95;;;25.80;57.80;;;;;;4918143;29;20479;-48
2022/06/30 05:39:39;;;;;;;7.43;3.88;;;25.80;57.60;;;;;;4918974;29;20042;-47
2022/06/30 05:42:05;;;;;;;6.95;3.50;;;25.80;58.00;;;;;;4917602;29;20035;-48
2022/06/30 05:44:32;;;;;;;5.07;3.17;;;25.80;58.10;;;;;;4917859;29;20035;-48
2022/06/30 05:46:58;;;;;;;6.20;3.63;;;25.80;57.90;;;;;;4917212;29;20070;-49
2022/06/30 05:49:25;;;;;;;4.72;3.03;;;25.80;58.00;;;;;;4916834;29;20038;-48
2022/06/30 05:51:52;;;;;;;4.57;2.95;;;25.80;58.10;;;;;;4918239;29;20035;-48
2022/06/30 05:54:17;;;;;;;3.53;2.20;;;25.80;57.90;;;;;;4920231;29;20061;-47
2022/06/30 05:56:43;;;;;;;5.20;2.92;;;25.80;57.80;;;;;;4918534;29;20154;-48
2022/06/30 05:59:09;;;;;;;5.13;2.67;;;25.80;57.50;;;;;;4918490;29;20028;-48
2022/06/30 06:01:35;;;;;;;3.88;2.85;;;25.90;57.50;;;;;;4921980;29;20055;-48
2022/06/30 06:04:01;;;;;;;4.38;2.78;;;25.90;57.60;;;;;;4917242;29;20024;-48
2022/06/30 06:06:27;;;;;;;5.05;2.83;;;25.90;57.60;;;;;;4917389;29;20067;-47
2022/06/30 06:08:53;;;;;;;4.90;2.88;;;25.80;57.70;;;;;;4917373;29;20032;-47
2022/06/30 06:11:19;;;;;;;4.72;2.85;;;25.90;57.70;;;;;;4918238;29;20040;-47
2022/06/30 06:13:44;;;;;;;4.93;2.95;;;25.90;57.90;;;;;;4917915;29;20084;-47
2022/06/30 06:16:10;;;;;;;3.58;2.33;;;25.90;57.90;;;;;;4917360;29;20114;-47
2022/06/30 06:18:36;;;;;;;4.47;2.85;;;25.90;57.90;;;;;;4917437;29;20035;-48
2022/06/30 06:21:01;;;;;;;4.45;2.85;;;25.90;57.90;;;;;;4918031;29;20023;-48
2022/06/30 06:23:27;;;;;;;4.32;2.88;;;25.90;57.60;;;;;;4920338;29;20020;-49
2022/06/30 06:25:53;;;;;;;4.15;2.75;;;25.90;57.60;;;;;;4918401;29;20107;-49
2022/06/30 06:31:03;;;;;;;4.63;2.47;;;25.90;56.80;;;;;;4927087;29;20751;-49
2022/06/30 06:33:29;;;;;;;3.60;2.42;;;25.90;56.50;;;;;;4928309;29;20053;-50
2022/06/30 06:35:55;;;;;;;5.03;2.90;;;25.90;56.10;;;;;;4928171;29;20058;-49
2022/06/30 06:38:20;;;;;;;3.97;2.60;;;26.00;56.40;;;;;;4928184;29;20583;-49
2022/06/30 06:40:46;;;;;;;4.30;2.42;;;25.90;55.70;;;;;;4928032;29;20696;-49
2022/06/30 06:43:12;;;;;;;5.00;2.83;;;25.90;55.50;;;;;;4927265;29;20035;-50
2022/06/30 06:45:38;;;;;;;5.05;2.72;;;26.00;55.70;;;;;;4926910;29;20042;-49
2022/06/30 06:48:04;;;;;;;6.28;2.85;;;26.00;55.60;;;;;;4927580;29;20024;-49
2022/06/30 06:50:29;;;;;;;5.13;2.17;;;26.00;55.40;;;;;;4928069;29;20027;-49
2022/06/30 06:52:55;;;;;;;3.58;2.17;;;26.00;55.30;;;;;;4928440;29;20108;-49
2022/06/30 06:55:21;;;;;;;4.05;2.70;;;26.00;55.30;;;;;;4927968;29;20027;-49
2022/06/30 06:57:48;;;;;;;4.75;3.03;;;26.00;55.30;;;;;;4927474;29;20028;-51
2022/06/30 07:00:14;;;;;;;4.63;2.53;;;26.00;55.30;;;;;;4927664;29;20032;-49
2022/06/30 07:02:40;;;;;;;3.97;2.22;;;26.00;55.30;;;;;;4928030;29;20400;-49
2022/06/30 07:05:08;;;;;;;3.97;2.35;;;26.10;55.40;;;;;;4928060;29;20665;-49
2022/06/30 07:07:35;;;;;;;3.60;2.50;;;26.10;55.40;;;;;;4927466;29;20052;-51
2022/06/30 07:10:02;;;;;;;3.80;2.20;;;26.10;55.40;;;;;;4927632;29;20035;-49
2022/06/30 07:12:27;;;;;;;3.90;2.28;;;26.10;55.50;;;;;;4927756;29;20031;-49
2022/06/30 07:14:53;;;;;;;4.20;2.00;;;26.10;55.40;;;;;;4927387;29;20027;-49
2022/06/30 07:17:20;;;;;;;3.67;2.33;;;26.20;55.50;;;;;;4927244;29;20031;-49
2022/06/30 07:19:45;;;;;;;3.75;2.40;;;26.10;55.50;;;;;;4927803;29;20028;-49
2022/06/30 07:22:11;;;;;;;3.30;2.20;;;26.20;55.40;;;;;;4927812;29;20378;-49
2022/06/30 07:24:37;;;;;;;3.55;2.20;;;26.20;55.40;;;;;;4927601;29;20023;-50
2022/06/30 07:27:03;;;;;;;3.95;2.15;;;26.20;55.30;;;;;;4927295;29;20035;-49
2022/06/30 07:29:30;;;;;;;4.43;2.40;;;26.20;55.20;;;;;;4926831;29;20047;-49
2022/06/30 07:31:57;;;;;;;4.47;2.38;;;26.20;55.20;;;;;;4927443;29;20176;-50
2022/06/30 07:34:22;;;;;;;3.70;2.45;;;26.20;55.10;;;;;;4927198;29;20070;-49
2022/06/30 07:36:48;;;;;;;4.00;2.53;;;26.20;55.00;;;;;;4926863;29;20055;-50
2022/06/30 07:39:14;;;;;;;3.72;2.30;;;26.30;55.00;;;;;;4927610;29;20040;-50
2022/06/30 07:41:40;;;;;;;4.07;2.17;;;26.30;55.00;;;;;;4926784;29;20031;-49
2022/06/30 07:44:06;;;;;;;3.15;2.03;;;26.30;54.80;;;;;;4926943;29;20119;-48
2022/06/30 07:46:31;;;;;;;4.68;2.40;;;26.30;54.90;;;;;;4926842;29;20039;-50
2022/06/30 07:48:57;;;;;;;4.05;2.33;;;26.30;55.00;;;;;;4926555;29;20037;-49
2022/06/30 07:51:23;;;;;;;3.88;1.92;;;26.30;54.90;;;;;;4927021;29;20063;-50
2022/06/30 07:53:50;;;;;;;3.60;2.03;;;26.30;55.00;;;;;;4926527;28;20114;-49
2022/06/30 07:56:16;;;;;;;3.08;2.00;;;26.30;54.90;;;;;;4926805;29;20023;-49
2022/06/30 07:58:42;;;;;;;3.72;2.00;;;26.40;54.90;;;;;;4924992;29;20028;-49
2022/06/30 08:01:08;;;;;;;3.83;2.17;;;26.40;55.00;;;;;;4926070;29;20032;-49
2022/06/30 08:03:34;;;;;;;2.85;1.80;;;26.40;55.00;;;;;;4926173;29;20091;-48
2022/06/30 08:06:00;;;;;;;3.08;2.00;;;26.40;54.90;;;;;;4926763;29;20107;-49
2022/06/30 08:08:26;;;;;;;3.75;2.10;;;26.40;54.90;;;;;;4926822;29;20084;-49
2022/06/30 08:10:52;;;;;;;3.13;1.90;;;26.40;54.80;;;;;;4925985;29;20063;-49
2022/06/30 08:13:18;;;;;;;3.55;2.00;;;26.40;54.70;;;;;;4926647;29;20488;-50
2022/06/30 08:15:43;;;;;;;3.38;2.10;;;26.40;54.80;;;;;;4925873;29;20036;-49
2022/06/30 08:18:09;;;;;;;3.47;1.70;;;26.50;54.60;;;;;;4925994;29;20028;-49
2022/06/30 08:20:35;;;;;;;3.20;1.98;;;26.40;54.60;;;;;;4926771;29;20024;-52
2022/06/30 08:23:01;;;;;;;3.70;2.10;;;26.50;54.50;;;;;;4926461;29;20028;-50
2022/06/30 08:25:27;;;;;;;3.53;2.20;;;26.50;54.50;;;;;;4926485;29;20024;-49
2022/06/30 08:27:53;;;;;;;3.05;1.88;;;26.50;54.30;;;;;;4925774;29;20055;-50
2022/06/30 08:30:19;;;;;;;3.35;1.90;;;26.50;54.50;;;;;;4925554;29;20055;-49
2022/06/30 08:32:45;;;;;;;2.90;1.90;;;26.50;54.50;;;;;;4926151;29;20024;-49
2022/06/30 08:35:11;;;;;;;2.95;1.65;;;26.50;54.30;;;;;;4926196;29;20053;-49
2022/06/30 08:37:37;;;;;;;2.67;1.58;;;26.50;54.40;;;;;;4940525;29;20110;-49
2022/06/30 08:42:49;;;;;;;3.30;1.80;;;26.50;54.50;;;;;;4926085;29;20024;-51
2022/06/30 08:45:19;;;;;;;3.08;1.85;;;26.50;54.30;;;;;;4925825;29;20630;-49
2022/06/30 08:47:48;;;;;;;3.05;1.60;;;26.50;54.40;;;;;;4924071;29;20741;-49
2022/06/30 08:50:16;;;;;;;3.45;1.88;;;26.60;54.50;;;;;;4925255;29;20028;-49
2022/06/30 08:53:09;;;;;;;2.90;1.70;;;26.60;54.40;;;;;;4925934;29;20027;-48
2022/06/30 08:55:35;;;;;;;2.88;1.35;;;26.60;54.40;;;;;;4924062;29;20576;-50
2022/06/30 08:58:05;;;;;;;2.55;1.50;;;26.60;54.40;;;;;;4925463;29;20028;-49
2022/06/30 09:00:33;;;;;;;3.17;1.80;;;26.60;54.40;;;;;;4925602;29;20790;-49
2022/06/30 09:02:59;;;;;;;3.80;2.35;;;26.60;54.30;;;;;;4925946;29;20034;-49
2022/06/30 09:05:25;;;;;;;2.88;1.42;;;26.60;54.20;;;;;;4925858;29;20027;-50
2022/06/30 09:07:50;;;;;;;2.97;1.73;;;26.60;54.20;;;;;;4925429;29;20054;-48
2022/06/30 09:10:17;;;;;;;3.75;1.50;;;26.60;54.20;;;;;;4925460;29;20443;-49
2022/06/30 09:12:57;;;;;;;3.47;1.80;;;26.60;54.80;;;;;;4926392;29;20032;-49
2022/06/30 09:15:23;;;;;;;2.78;1.50;;;26.70;54.70;;;;;;4925502;29;20043;-50
2022/06/30 09:17:49;;;;;;;2.25;1.33;;;26.60;53.90;;;;;;4925033;29;20039;-49
2022/06/30 09:20:14;;;;;;;2.60;1.55;;;26.70;53.90;;;;;;4925410;29;20016;-49
2022/06/30 09:22:42;;;;;;;2.83;1.35;;;26.70;54.00;;;;;;4925869;29;20027;-48
2022/06/30 09:25:09;;;;;;;2.90;1.70;;;26.70;54.00;;;;;;4925597;29;20019;-50
2022/06/30 09:27:38;;;;;;;2.33;1.52;;;26.70;54.00;;;;;;4925316;29;20046;-49
2022/06/30 09:30:12;;;;;;;2.60;1.60;;;26.80;53.90;;;;;;4924759;29;20542;-50
2022/06/30 09:32:45;;;;;;;2.95;1.65;;;26.70;54.00;;;;;;4906422;29;20024;-49
2022/06/30 09:35:12;;;;;;;3.45;1.85;;;26.70;54.00;;;;;;4906576;29;20068;-49
2022/06/30 09:37:38;;;;;;;3.13;1.70;;;26.70;54.00;;;;;;4906402;29;20123;-49
2022/06/30 09:40:06;;;;;;;3.33;1.83;;;26.70;54.00;;;;;;4908065;29;20039;-49
2022/06/30 09:42:49;;;;;;;2.63;1.30;;;26.80;53.90;;;;;;4925231;29;20107;-49
2022/06/30 09:45:34;;;;;;;2.58;1.40;;;26.80;53.90;;;;;;4925126;29;20038;-48
2022/06/30 09:48:00;;;;;;;2.38;1.48;;;26.70;53.90;;;;;;4923554;29;20028;-49
2022/06/30 09:50:26;;;;;;;2.53;1.48;;;26.80;54.60;;;;;;4925031;29;20523;-48
2022/06/30 09:53:14;;;;;;;3.00;1.70;;;26.80;54.00;;;;;;4925471;29;20106;-49
2022/06/30 09:55:45;;;;;;;3.22;1.63;;;26.80;53.90;;;;;;4925610;29;20094;-49
2022/06/30 09:58:14;;;;;;;2.38;1.33;;;26.80;53.90;;;;;;4924597;29;20373;-49
2022/06/30 10:00:48;;;;;;;2.78;1.80;;;26.80;53.90;;;;;;4925050;29;20725;-49
2022/06/30 10:03:16;;;;;;;2.83;1.67;;;26.80;53.80;;;;;;4924768;29;20039;-49
2022/06/30 10:05:46;;;;;;;3.20;1.73;;;26.80;53.80;;;;;;4925079;29;20035;-50
2022/06/30 10:08:14;;;;;;;3.10;2.03;;;26.80;53.80;;;;;;4924963;29;20535;-49
2022/06/30 10:10:43;;;;;;;2.80;1.70;;;26.80;54.40;;;;;;4925483;29;20062;-49
2022/06/30 10:13:14;;;;;;;2.33;1.30;;;26.80;53.70;;;;;;4925407;29;20138;-52
2022/06/30 10:15:41;;;;;;;2.10;1.20;;;26.80;53.70;;;;;;4924645;29;20028;-49
2022/06/30 10:18:08;;;;;;;2.53;1.42;;;26.90;53.70;;;;;;4926493;29;20035;-49
2022/06/30 10:20:38;;;;;;;2.33;1.40;;;26.90;53.70;;;;;;4929042;29;20034;-49
2022/06/30 10:23:07;;;;;;;2.67;1.42;;;26.90;53.70;;;;;;4928660;29;20184;-48
2022/06/30 10:25:33;;;;;;;2.92;1.50;;;26.90;53.70;;;;;;4928844;29;20027;-49
2022/06/30 10:27:59;;;;;;;2.40;1.27;;;26.90;53.70;;;;;;4928477;29;20027;-48
2022/06/30 10:30:36;;;;;;;3.00;1.55;;;26.90;53.60;;;;;;4928265;29;20086;-49
2022/06/30 10:33:19;;;;;;;2.30;1.30;;;26.90;53.60;;;;;;4928352;29;20032;-48
2022/06/30 10:35:51;;;;;;;2.00;1.10;;;26.90;53.60;;;;;;4928387;29;20151;-49
2022/06/30 10:38:39;;;;;;;2.72;1.40;;;26.90;53.60;;;;;;4926787;29;20440;-49
2022/06/30 10:41:11;;;;;;;2.03;1.20;;;26.90;53.60;;;;;;4928448;29;20035;-49
2022/06/30 10:44:04;;;;;;;2.40;1.38;;;26.90;53.60;;;;;;4928373;29;20028;-50
2022/06/30 10:46:56;;;;;;;2.60;1.50;;;26.90;53.70;;;;;;4928381;29;20039;-48
2022/06/30 10:49:27;;;;;;;2.78;1.50;;;27.00;54.10;;;;;;4927376;29;20031;-49
2022/06/30 10:52:23;;;;;;;1.98;1.17;;;26.90;53.50;;;;;;4928348;29;20054;-49
2022/06/30 10:54:57;;;;;;;3.10;1.58;;;27.00;54.20;;;;;;4928070;29;20122;-49
2022/06/30 10:57:23;;;;;;;2.65;1.30;;;26.90;53.50;;;;;;4928047;29;20110;-49
2022/06/30 10:59:49;;;;;;;2.35;1.50;;;27.00;54.10;;;;;;4927381;29;20110;-49
2022/06/30 11:02:22;;;;;;;3.30;1.80;;;27.00;54.10;;;;;;4927911;29;20047;-51
2022/06/30 11:04:50;;;;;;;2.65;1.63;;;27.00;54.10;;;;;;4927792;29;20111;-49
2022/06/30 11:07:18;;;;;;;2.90;1.30;;;27.00;54.00;;;;;;4927210;29;20035;-49
2022/06/30 11:09:44;;;;;;;2.92;1.48;;;27.00;54.10;;;;;;4927283;29;20062;-48
2022/06/30 11:12:11;;;;;;;2.53;1.40;;;27.00;54.00;;;;;;4927216;29;20662;-48
2022/06/30 11:14:40;;;;;;;2.67;1.48;;;27.00;54.00;;;;;;4927454;29;20028;-49
2022/06/30 11:17:17;;;;;;;2.63;1.40;;;27.10;54.00;;;;;;4927306;29;20032;-48
2022/06/30 11:19:43;;;;;;;2.10;1.20;;;27.00;54.00;;;;;;4927278;29;20108;-48
2022/06/30 11:22:15;;;;;;;2.33;1.33;;;27.00;53.90;;;;;;4927683;29;20127;-49
2022/06/30 11:24:43;;;;;;;2.45;1.45;;;27.10;53.90;;;;;;4927590;29;20087;-48
2022/06/30 11:27:21;;;;;;;2.58;1.40;;;27.10;53.80;;;;;;4925747;29;20152;-48
2022/06/30 11:29:48;;;;;;;2.42;1.25;;;27.10;53.80;;;;;;4927441;29;20603;-49
2022/06/30 11:32:14;;;;;;;2.50;1.40;;;27.10;53.80;;;;;;4926418;29;20036;-48
2022/06/30 11:34:41;;;;;;;2.17;1.27;;;27.10;53.80;;;;;;4927283;29;20035;-49
2022/06/30 11:37:10;;;;;;;2.83;1.55;;;27.10;54.50;;;;;;4927012;29;20111;-48
2022/06/30 11:39:36;;;;;;;1.85;1.23;;;27.10;53.90;;;;;;4927228;29;20107;-48
2022/06/30 11:42:11;;;;;;;2.55;1.30;;;27.20;53.80;;;;;;4926849;29;20115;-48
2022/06/30 11:44:39;;;;;;;2.25;1.58;;;27.20;53.80;;;;;;4927056;29;20676;-49
2022/06/30 11:47:16;;;;;;;2.67;1.40;;;27.20;53.80;;;;;;4926478;29;20042;-48
2022/06/30 11:49:41;;;;;;;2.38;1.40;;;27.20;53.80;;;;;;4926779;29;20451;-49
2022/06/30 11:52:16;;;;;;;2.10;1.30;;;27.20;53.80;;;;;;4927090;29;20039;-49
2022/06/30 11:54:47;;;;;;;1.90;1.20;;;27.20;53.90;;;;;;4926036;29;20051;-48
2022/06/30 11:57:13;;;;;;;2.67;1.33;;;27.20;53.80;;;;;;4907572;29;20169;-49
2022/06/30 11:59:53;;;;;;;2.40;1.30;;;27.20;53.80;;;;;;4920660;29;20057;-48
2022/06/30 12:02:20;;;;;;;2.65;1.30;;;27.20;53.90;;;;;;4926541;29;20067;-49
2022/06/30 12:04:51;;;;;;;2.30;1.10;;;27.30;53.80;;;;;;4926675;29;20078;-48
2022/06/30 12:07:18;;;;;;;2.45;1.27;;;27.20;53.90;;;;;;4926877;29;20111;-48
2022/06/30 12:09:45;;;;;;;1.90;1.10;;;27.30;53.80;;;;;;4926833;29;20087;-49
2022/06/30 12:12:12;;;;;;;2.20;1.40;;;27.30;53.80;;;;;;4926407;29;20043;-48
2022/06/30 12:14:39;;;;;;;2.10;1.30;;;27.30;53.70;;;;;;4926644;29;20038;-48
2022/06/30 12:17:06;;;;;;;2.25;1.38;;;27.30;53.70;;;;;;4925831;29;20031;-48
2022/06/30 12:19:33;;;;;;;2.13;1.23;;;27.30;53.70;;;;;;4926199;29;20036;-48
2022/06/30 12:22:02;;;;;;;2.45;1.35;;;27.40;53.60;;;;;;4926610;29;20020;-47
2022/06/30 12:24:28;;;;;;;2.28;1.40;;;27.40;53.60;;;;;;4926722;29;20535;-49
2022/06/30 12:26:57;;;;;;;2.55;1.42;;;27.40;53.60;;;;;;4924475;29;20040;-48
2022/06/30 12:29:24;;;;;;;2.63;1.50;;;27.40;53.50;;;;;;4926395;29;20040;-48
2022/06/30 12:32:01;;;;;;;2.00;1.30;;;27.40;53.50;;;;;;4926056;29;20071;-49
2022/06/30 12:34:27;;;;;;;2.25;1.25;;;27.40;53.60;;;;;;4926153;29;20808;-48
2022/06/30 12:37:03;;;;;;;1.83;1.15;;;27.50;53.50;;;;;;4925867;29;20066;-48
2022/06/30 12:39:32;;;;;;;1.98;1.20;;;27.50;53.50;;;;;;4926018;29;20023;-48
2022/06/30 12:42:05;;;;;;;2.38;1.38;;;27.50;53.40;;;;;;4925317;29;20031;-49
2022/06/30 12:44:36;;;;;;;2.33;1.45;;;27.50;53.40;;;;;;4926118;29;20091;-49
2022/06/30 12:47:04;;;;;;;1.92;1.23;;;27.50;53.30;;;;;;4925728;29;20122;-48
2022/06/30 12:49:29;;;;;;;2.13;1.25;;;27.50;53.30;;;;;;4924640;29;20031;-48
2022/06/30 12:51:55;;;;;;;2.15;1.20;;;27.60;53.20;;;;;;4926146;29;20780;-48
2022/06/30 12:54:26;;;;;;;2.40;1.50;;;27.60;53.20;;;;;;4925631;29;20035;-48
2022/06/30 12:57:00;;;;;;;2.35;1.20;;;27.60;53.10;;;;;;4925501;29;20063;-48
2022/06/30 12:59:26;;;;;;;1.80;1.23;;;27.60;53.10;;;;;;4925825;29;20049;-48
2022/06/30 13:01:54;;;;;;;2.20;1.30;;;27.60;53.10;;;;;;4925631;29;20044;-48
2022/06/30 13:04:26;;;;;;;2.40;1.35;;;27.60;53.00;;;;;;4925962;29;20083;-48
2022/06/30 13:06:53;;;;;;;2.03;1.10;;;27.70;53.00;;;;;;4925431;29;20059;-49